Saint-Elie-D'Orford, Canada
Current Conditions -  °F | °C
As of 5:47 PM on Tuesday 21 Oct 2014 (Local Time) from CYSC Reporting Station
Light Rain Light Rain  
Wind Chill: 40°   Ceiling: 1200
Heat Index: 45°   Visibility: 8mi
Dew Point: 45°   Wind: 8mph
Humidity: 100%   Direction: 50°NE
Pressure: 30.07"   Gusts: NA
Location:  45.4°N, 72.03°W
Report Text: CYSC 212147Z AUTO 05007KT 8SM -RA SCT006 BKN012 BKN027 OVC055 07/07 A3007 RMK SLP189
Loading
Personal Weather Stations






























Interactive Weather Map
Tropical Storm Tracking
New forecast layout! Learn more

10-Day Weather Forecast

Advertisements
Track Severe Weather on mobile